sensor_id;sensor_type;location;lat;lon;timestamp;temperature;humidity
36716;DHT22;22699;51.034;3.730;2022-12-08T00:01:27;5.10;99.90
36716;DHT22;22699;51.034;3.730;2022-12-08T00:03:54;5.00;99.90
36716;DHT22;22699;51.034;3.730;2022-12-08T00:09:13;5.00;99.90
36716;DHT22;22699;51.034;3.730;2022-12-08T00:14:29;5.10;99.90
36716;DHT22;22699;51.034;3.730;2022-12-08T00:16:55;5.10;99.90
36716;DHT22;22699;51.034;3.730;2022-12-08T00:19:22;5.10;99.90
36716;DHT22;22699;51.034;3.730;2022-12-08T00:21:49;5.20;99.90
36716;DHT22;22699;51.034;3.730;2022-12-08T00:24:16;5.20;99.90
36716;DHT22;22699;51.034;3.730;2022-12-08T00:26:44;5.30;99.90
36716;DHT22;22699;51.034;3.730;2022-12-08T00:29:18;5.40;99.90
36716;DHT22;22699;51.034;3.730;2022-12-08T00:31:50;5.40;99.90
36716;DHT22;22699;51.034;3.730;2022-12-08T00:34:18;5.30;99.90
36716;DHT22;22699;51.034;3.730;2022-12-08T00:36:44;5.20;99.90
36716;DHT22;22699;51.034;3.730;2022-12-08T00:39:11;5.00;99.90
36716;DHT22;22699;51.034;3.730;2022-12-08T00:41:37;5.10;99.90
36716;DHT22;22699;51.034;3.730;2022-12-08T00:44:24;5.00;99.90
36716;DHT22;22699;51.034;3.730;2022-12-08T00:46:52;5.00;99.90
36716;DHT22;22699;51.034;3.730;2022-12-08T00:49:26;5.00;99.90
36716;DHT22;22699;51.034;3.730;2022-12-08T00:51:58;5.10;99.90
36716;DHT22;22699;51.034;3.730;2022-12-08T00:54:27;5.10;99.90
36716;DHT22;22699;51.034;3.730;2022-12-08T00:56:52;5.20;99.90
36716;DHT22;22699;51.034;3.730;2022-12-08T00:59:18;5.10;99.90
36716;DHT22;22699;51.034;3.730;2022-12-08T01:01:50;5.10;99.90
36716;DHT22;22699;51.034;3.730;2022-12-08T01:04:18;5.00;99.90
36716;DHT22;22699;51.034;3.730;2022-12-08T01:06:50;5.00;99.90
36716;DHT22;22699;51.034;3.730;2022-12-08T01:09:34;5.10;99.90
36716;DHT22;22699;51.034;3.730;2022-12-08T01:12:01;5.00;99.90
36716;DHT22;22699;51.034;3.730;2022-12-08T01:14:27;5.00;99.90
36716;DHT22;22699;51.034;3.730;2022-12-08T01:16:52;5.00;99.90
36716;DHT22;22699;51.034;3.730;2022-12-08T01:19:20;4.90;99.90
36716;DHT22;22699;51.034;3.730;2022-12-08T01:21:46;4.90;99.90
36716;DHT22;22699;51.034;3.730;2022-12-08T01:24:14;4.90;99.90
36716;DHT22;22699;51.034;3.730;2022-12-08T01:26:40;4.80;99.90
36716;DHT22;22699;51.034;3.730;2022-12-08T01:29:06;4.90;99.90
36716;DHT22;22699;51.034;3.730;2022-12-08T01:31:32;5.10;99.90
36716;DHT22;22699;51.034;3.730;2022-12-08T01:34:00;5.20;99.90
36716;DHT22;22699;51.034;3.730;2022-12-08T01:36:28;5.10;99.90
36716;DHT22;22699;51.034;3.730;2022-12-08T01:38:57;5.00;99.90
36716;DHT22;22699;51.034;3.730;2022-12-08T01:41:30;5.10;99.90
36716;DHT22;22699;51.034;3.730;2022-12-08T01:44:02;5.00;99.90
36716;DHT22;22699;51.034;3.730;2022-12-08T01:46:30;5.00;99.90
36716;DHT22;22699;51.034;3.730;2022-12-08T01:49:24;5.00;99.90
36716;DHT22;22699;51.034;3.730;2022-12-08T01:52:04;4.90;99.90
36716;DHT22;22699;51.034;3.730;2022-12-08T01:54:37;4.80;99.90
36716;DHT22;22699;51.034;3.730;2022-12-08T01:57:29;4.90;99.90
36716;DHT22;22699;51.034;3.730;2022-12-08T02:00:16;5.10;99.90
36716;DHT22;22699;51.034;3.730;2022-12-08T02:03:03;5.00;99.90
36716;DHT22;22699;51.034;3.730;2022-12-08T02:05:35;5.10;99.90
36716;DHT22;22699;51.034;3.730;2022-12-08T02:08:05;5.20;99.90
36716;DHT22;22699;51.034;3.730;2022-12-08T02:10:33;5.20;99.90
36716;DHT22;22699;51.034;3.730;2022-12-08T02:13:00;5.30;99.90
36716;DHT22;22699;51.034;3.730;2022-12-08T02:16:01;5.40;99.90
36716;DHT22;22699;51.034;3.730;2022-12-08T02:21:32;5.40;99.90
36716;DHT22;22699;51.034;3.730;2022-12-08T02:35:20;5.00;99.90
36716;DHT22;22699;51.034;3.730;2022-12-08T02:37:56;4.80;99.90
36716;DHT22;22699;51.034;3.730;2022-12-08T02:40:35;4.60;99.90
36716;DHT22;22699;51.034;3.730;2022-12-08T02:43:19;4.70;99.90
36716;DHT22;22699;51.034;3.730;2022-12-08T02:45:55;4.50;99.90
36716;DHT22;22699;51.034;3.730;2022-12-08T02:48:27;4.50;99.90
36716;DHT22;22699;51.034;3.730;2022-12-08T02:50:53;4.40;99.90
36716;DHT22;22699;51.034;3.730;2022-12-08T02:53:19;4.30;99.90
36716;DHT22;22699;51.034;3.730;2022-12-08T02:55:49;4.40;99.90
36716;DHT22;22699;51.034;3.730;2022-12-08T02:58:41;4.60;99.90
36716;DHT22;22699;51.034;3.730;2022-12-08T03:06:41;5.10;99.90
36716;DHT22;22699;51.034;3.730;2022-12-08T03:12:26;5.00;99.90
36716;DHT22;22699;51.034;3.730;2022-12-08T03:15:02;4.80;99.90
36716;DHT22;22699;51.034;3.730;2022-12-08T03:17:30;4.90;99.90
36716;DHT22;22699;51.034;3.730;2022-12-08T03:19:58;4.80;99.90
36716;DHT22;22699;51.034;3.730;2022-12-08T03:22:27;4.90;99.90
36716;DHT22;22699;51.034;3.730;2022-12-08T03:24:55;4.90;99.90
36716;DHT22;22699;51.034;3.730;2022-12-08T03:27:27;5.00;99.90
36716;DHT22;22699;51.034;3.730;2022-12-08T03:29:56;5.00;99.90
36716;DHT22;22699;51.034;3.730;2022-12-08T03:32:32;4.90;99.90
36716;DHT22;22699;51.034;3.730;2022-12-08T03:35:07;5.00;99.90
36716;DHT22;22699;51.034;3.730;2022-12-08T03:37:38;5.00;99.90
36716;DHT22;22699;51.034;3.730;2022-12-08T03:40:07;5.00;99.90
36716;DHT22;22699;51.034;3.730;2022-12-08T03:42:34;5.00;99.90
36716;DHT22;22699;51.034;3.730;2022-12-08T03:45:00;4.90;99.90
36716;DHT22;22699;51.034;3.730;2022-12-08T03:47:27;4.90;99.90
36716;DHT22;22699;51.034;3.730;2022-12-08T03:49:52;4.80;99.90
36716;DHT22;22699;51.034;3.730;2022-12-08T03:52:18;4.80;99.90
36716;DHT22;22699;51.034;3.730;2022-12-08T03:54:45;4.60;99.90
36716;DHT22;22699;51.034;3.730;2022-12-08T03:57:10;4.50;99.90
36716;DHT22;22699;51.034;3.730;2022-12-08T03:59:36;4.50;99.90
36716;DHT22;22699;51.034;3.730;2022-12-08T04:02:01;4.50;99.90
36716;DHT22;22699;51.034;3.730;2022-12-08T04:04:29;4.40;99.90
36716;DHT22;22699;51.034;3.730;2022-12-08T04:06:55;4.40;99.90
36716;DHT22;22699;51.034;3.730;2022-12-08T04:09:20;4.50;99.90
36716;DHT22;22699;51.034;3.730;2022-12-08T04:11:47;4.40;99.90
36716;DHT22;22699;51.034;3.730;2022-12-08T04:14:15;4.40;99.90
36716;DHT22;22699;51.034;3.730;2022-12-08T04:16:40;4.40;99.90
36716;DHT22;22699;51.034;3.730;2022-12-08T04:19:06;4.40;99.90
36716;DHT22;22699;51.034;3.730;2022-12-08T04:21:32;4.40;99.90
36716;DHT22;22699;51.034;3.730;2022-12-08T04:24:02;4.40;99.90
36716;DHT22;22699;51.034;3.730;2022-12-08T04:26:28;4.30;99.90
36716;DHT22;22699;51.034;3.730;2022-12-08T04:28:55;4.40;99.90
36716;DHT22;22699;51.034;3.730;2022-12-08T04:31:22;4.40;99.90
36716;DHT22;22699;51.034;3.730;2022-12-08T04:33:48;4.50;99.90
36716;DHT22;22699;51.034;3.730;2022-12-08T04:36:15;4.40;99.90
36716;DHT22;22699;51.034;3.730;2022-12-08T04:38:44;4.40;99.90
36716;DHT22;22699;51.034;3.730;2022-12-08T04:41:10;4.30;99.90
36716;DHT22;22699;51.034;3.730;2022-12-08T04:43:36;4.20;99.90
36716;DHT22;22699;51.034;3.730;2022-12-08T04:46:05;4.10;99.90
36716;DHT22;22699;51.034;3.730;2022-12-08T04:48:31;4.10;99.90
36716;DHT22;22699;51.034;3.730;2022-12-08T04:50:57;4.10;99.90
36716;DHT22;22699;51.034;3.730;2022-12-08T04:53:22;4.10;99.90
36716;DHT22;22699;51.034;3.730;2022-12-08T04:55:48;4.10;99.90
36716;DHT22;22699;51.034;3.730;2022-12-08T04:58:17;4.00;99.90
36716;DHT22;22699;51.034;3.730;2022-12-08T05:00:43;4.10;99.90
36716;DHT22;22699;51.034;3.730;2022-12-08T05:03:09;4.10;99.90
36716;DHT22;22699;51.034;3.730;2022-12-08T05:05:35;4.10;99.90
36716;DHT22;22699;51.034;3.730;2022-12-08T05:08:01;4.00;99.90
36716;DHT22;22699;51.034;3.730;2022-12-08T05:10:27;3.90;99.90
36716;DHT22;22699;51.034;3.730;2022-12-08T05:12:53;4.20;99.90
36716;DHT22;22699;51.034;3.730;2022-12-08T05:15:24;4.20;99.90
36716;DHT22;22699;51.034;3.730;2022-12-08T05:17:52;4.20;99.90
36716;DHT22;22699;51.034;3.730;2022-12-08T05:20:18;4.10;99.90
36716;DHT22;22699;51.034;3.730;2022-12-08T05:22:45;4.20;99.90
36716;DHT22;22699;51.034;3.730;2022-12-08T05:25:13;4.10;99.90
36716;DHT22;22699;51.034;3.730;2022-12-08T05:27:40;4.20;99.90
36716;DHT22;22699;51.034;3.730;2022-12-08T05:30:06;4.10;99.90
36716;DHT22;22699;51.034;3.730;2022-12-08T05:32:32;4.20;99.90
36716;DHT22;22699;51.034;3.730;2022-12-08T05:34:57;4.30;99.90
36716;DHT22;22699;51.034;3.730;2022-12-08T05:37:23;4.20;99.90
36716;DHT22;22699;51.034;3.730;2022-12-08T05:39:51;4.10;99.90
36716;DHT22;22699;51.034;3.730;2022-12-08T05:42:16;4.20;99.90
36716;DHT22;22699;51.034;3.730;2022-12-08T05:44:42;4.20;99.90
36716;DHT22;22699;51.034;3.730;2022-12-08T05:47:07;4.30;99.90
36716;DHT22;22699;51.034;3.730;2022-12-08T05:49:33;4.40;99.90
36716;DHT22;22699;51.034;3.730;2022-12-08T05:51:59;4.50;99.90
36716;DHT22;22699;51.034;3.730;2022-12-08T05:54:24;4.40;99.90
36716;DHT22;22699;51.034;3.730;2022-12-08T05:56:50;4.40;99.90
36716;DHT22;22699;51.034;3.730;2022-12-08T05:59:15;4.50;99.90
36716;DHT22;22699;51.034;3.730;2022-12-08T06:01:41;4.40;99.90
36716;DHT22;22699;51.034;3.730;2022-12-08T06:04:08;4.50;99.90
36716;DHT22;22699;51.034;3.730;2022-12-08T06:06:35;4.40;99.90
36716;DHT22;22699;51.034;3.730;2022-12-08T06:09:07;4.50;99.90
36716;DHT22;22699;51.034;3.730;2022-12-08T06:11:33;4.40;99.90
36716;DHT22;22699;51.034;3.730;2022-12-08T06:14:02;4.40;99.90
36716;DHT22;22699;51.034;3.730;2022-12-08T06:16:28;4.50;99.90
36716;DHT22;22699;51.034;3.730;2022-12-08T06:18:54;4.40;99.90
36716;DHT22;22699;51.034;3.730;2022-12-08T06:21:20;4.20;99.90
36716;DHT22;22699;51.034;3.730;2022-12-08T06:23:50;4.20;99.90
36716;DHT22;22699;51.034;3.730;2022-12-08T06:26:16;4.30;99.90
36716;DHT22;22699;51.034;3.730;2022-12-08T06:28:42;4.40;99.90
36716;DHT22;22699;51.034;3.730;2022-12-08T06:31:09;4.60;99.90
36716;DHT22;22699;51.034;3.730;2022-12-08T06:33:36;4.70;99.90
36716;DHT22;22699;51.034;3.730;2022-12-08T06:36:11;4.70;99.90
36716;DHT22;22699;51.034;3.730;2022-12-08T06:38:37;4.70;99.90
36716;DHT22;22699;51.034;3.730;2022-12-08T06:41:05;5.00;99.90
36716;DHT22;22699;51.034;3.730;2022-12-08T06:43:33;5.00;99.90
36716;DHT22;22699;51.034;3.730;2022-12-08T06:46:01;4.90;99.90
36716;DHT22;22699;51.034;3.730;2022-12-08T06:48:29;4.90;99.90
36716;DHT22;22699;51.034;3.730;2022-12-08T06:51:12;4.90;99.90
36716;DHT22;22699;51.034;3.730;2022-12-08T06:53:41;4.90;99.90
36716;DHT22;22699;51.034;3.730;2022-12-08T06:56:08;4.70;99.90
36716;DHT22;22699;51.034;3.730;2022-12-08T06:58:34;4.70;99.90
36716;DHT22;22699;51.034;3.730;2022-12-08T07:01:08;4.60;99.90
36716;DHT22;22699;51.034;3.730;2022-12-08T07:03:36;4.60;99.90
36716;DHT22;22699;51.034;3.730;2022-12-08T07:06:02;4.50;99.90
36716;DHT22;22699;51.034;3.730;2022-12-08T07:08:29;4.50;99.90
36716;DHT22;22699;51.034;3.730;2022-12-08T07:10:54;4.60;99.90
36716;DHT22;22699;51.034;3.730;2022-12-08T07:13:20;4.70;99.90
36716;DHT22;22699;51.034;3.730;2022-12-08T07:15:47;4.80;99.90
36716;DHT22;22699;51.034;3.730;2022-12-08T07:18:13;4.80;99.90
36716;DHT22;22699;51.034;3.730;2022-12-08T07:20:40;5.00;99.90
36716;DHT22;22699;51.034;3.730;2022-12-08T07:23:07;4.90;99.90
36716;DHT22;22699;51.034;3.730;2022-12-08T07:25:33;4.90;99.90
36716;DHT22;22699;51.034;3.730;2022-12-08T07:27:59;4.90;99.90
36716;DHT22;22699;51.034;3.730;2022-12-08T07:30:25;4.90;99.90
36716;DHT22;22699;51.034;3.730;2022-12-08T07:32:54;5.00;99.90
36716;DHT22;22699;51.034;3.730;2022-12-08T07:35:19;5.10;99.90
36716;DHT22;22699;51.034;3.730;2022-12-08T07:37:46;5.30;99.90
36716;DHT22;22699;51.034;3.730;2022-12-08T07:40:18;5.40;99.90
36716;DHT22;22699;51.034;3.730;2022-12-08T07:42:43;5.40;99.90
36716;DHT22;22699;51.034;3.730;2022-12-08T07:45:12;5.40;99.90
36716;DHT22;22699;51.034;3.730;2022-12-08T07:47:39;5.50;99.90
36716;DHT22;22699;51.034;3.730;2022-12-08T07:50:05;5.50;99.90
36716;DHT22;22699;51.034;3.730;2022-12-08T07:52:33;5.60;99.90
36716;DHT22;22699;51.034;3.730;2022-12-08T07:55:00;5.70;99.90
36716;DHT22;22699;51.034;3.730;2022-12-08T07:57:26;5.80;99.90
36716;DHT22;22699;51.034;3.730;2022-12-08T07:59:52;5.70;99.90
36716;DHT22;22699;51.034;3.730;2022-12-08T08:02:20;6.00;99.90
36716;DHT22;22699;51.034;3.730;2022-12-08T08:04:49;5.80;99.90
36716;DHT22;22699;51.034;3.730;2022-12-08T08:07:15;5.70;99.90
36716;DHT22;22699;51.034;3.730;2022-12-08T08:09:41;5.60;99.90
36716;DHT22;22699;51.034;3.730;2022-12-08T08:12:08;5.50;99.90
36716;DHT22;22699;51.034;3.730;2022-12-08T08:14:34;5.60;99.90
36716;DHT22;22699;51.034;3.730;2022-12-08T08:17:03;5.60;99.90
36716;DHT22;22699;51.034;3.730;2022-12-08T08:19:28;5.60;99.90
36716;DHT22;22699;51.034;3.730;2022-12-08T08:21:56;5.50;99.90
36716;DHT22;22699;51.034;3.730;2022-12-08T08:24:22;5.30;99.90
36716;DHT22;22699;51.034;3.730;2022-12-08T08:26:50;5.50;99.90
36716;DHT22;22699;51.034;3.730;2022-12-08T08:29:18;5.70;99.90
36716;DHT22;22699;51.034;3.730;2022-12-08T08:31:44;5.40;99.90
36716;DHT22;22699;51.034;3.730;2022-12-08T08:34:09;5.50;99.90
36716;DHT22;22699;51.034;3.730;2022-12-08T08:36:41;5.50;99.90
36716;DHT22;22699;51.034;3.730;2022-12-08T08:39:10;5.60;99.90
36716;DHT22;22699;51.034;3.730;2022-12-08T08:41:37;5.50;99.90
36716;DHT22;22699;51.034;3.730;2022-12-08T08:44:09;5.60;99.90
36716;DHT22;22699;51.034;3.730;2022-12-08T08:46:35;5.80;99.90
36716;DHT22;22699;51.034;3.730;2022-12-08T08:49:02;5.40;99.90
36716;DHT22;22699;51.034;3.730;2022-12-08T08:51:29;5.20;99.90
36716;DHT22;22699;51.034;3.730;2022-12-08T08:53:54;5.10;99.90
36716;DHT22;22699;51.034;3.730;2022-12-08T08:56:22;5.00;99.90
36716;DHT22;22699;51.034;3.730;2022-12-08T08:58:49;4.90;99.90
36716;DHT22;22699;51.034;3.730;2022-12-08T09:01:17;4.90;99.90
36716;DHT22;22699;51.034;3.730;2022-12-08T09:03:44;4.90;99.90
36716;DHT22;22699;51.034;3.730;2022-12-08T09:06:12;4.80;99.90
36716;DHT22;22699;51.034;3.730;2022-12-08T09:08:38;4.60;99.90
36716;DHT22;22699;51.034;3.730;2022-12-08T09:11:03;4.70;99.90
36716;DHT22;22699;51.034;3.730;2022-12-08T09:13:29;4.70;99.90
36716;DHT22;22699;51.034;3.730;2022-12-08T09:15:58;4.70;99.90
36716;DHT22;22699;51.034;3.730;2022-12-08T09:18:24;4.60;99.90
36716;DHT22;22699;51.034;3.730;2022-12-08T09:20:49;4.70;99.90
36716;DHT22;22699;51.034;3.730;2022-12-08T09:23:17;4.80;99.90
36716;DHT22;22699;51.034;3.730;2022-12-08T09:25:43;5.00;99.90
36716;DHT22;22699;51.034;3.730;2022-12-08T09:28:11;5.10;99.90
36716;DHT22;22699;51.034;3.730;2022-12-08T09:30:38;5.10;99.90
36716;DHT22;22699;51.034;3.730;2022-12-08T09:33:04;5.30;99.90
36716;DHT22;22699;51.034;3.730;2022-12-08T09:35:29;5.30;99.90
36716;DHT22;22699;51.034;3.730;2022-12-08T09:37:55;5.50;99.90
36716;DHT22;22699;51.034;3.730;2022-12-08T09:40:23;5.70;99.90
36716;DHT22;22699;51.034;3.730;2022-12-08T09:45:37;5.40;99.90
36716;DHT22;22699;51.034;3.730;2022-12-08T09:48:14;5.60;99.90
36716;DHT22;22699;51.034;3.730;2022-12-08T09:50:56;5.50;99.90
36716;DHT22;22699;51.034;3.730;2022-12-08T09:53:28;5.40;99.90
36716;DHT22;22699;51.034;3.730;2022-12-08T09:56:00;5.30;99.90
36716;DHT22;22699;51.034;3.730;2022-12-08T10:01:25;5.30;99.90
36716;DHT22;22699;51.034;3.730;2022-12-08T10:03:55;5.30;99.90
36716;DHT22;22699;51.034;3.730;2022-12-08T10:06:24;5.20;99.90
36716;DHT22;22699;51.034;3.730;2022-12-08T10:12:37;5.30;99.90
36716;DHT22;22699;51.034;3.730;2022-12-08T10:14:45;5.30;99.90
36716;DHT22;22699;51.034;3.730;2022-12-08T10:17:31;5.40;99.90
36716;DHT22;22699;51.034;3.730;2022-12-08T10:20:24;5.50;99.90
36716;DHT22;22699;51.034;3.730;2022-12-08T10:23:32;5.60;99.90
36716;DHT22;22699;51.034;3.730;2022-12-08T10:26:17;5.40;99.90
36716;DHT22;22699;51.034;3.730;2022-12-08T10:29:20;5.40;99.90
36716;DHT22;22699;51.034;3.730;2022-12-08T10:32:08;5.50;99.90
36716;DHT22;22699;51.034;3.730;2022-12-08T10:35:06;5.50;99.90
36716;DHT22;22699;51.034;3.730;2022-12-08T10:37:32;5.80;99.90
36716;DHT22;22699;51.034;3.730;2022-12-08T10:40:16;5.90;99.90
36716;DHT22;22699;51.034;3.730;2022-12-08T10:42:47;6.00;99.90
36716;DHT22;22699;51.034;3.730;2022-12-08T10:48:23;6.20;99.90
36716;DHT22;22699;51.034;3.730;2022-12-08T10:50:56;6.10;99.90
36716;DHT22;22699;51.034;3.730;2022-12-08T10:53:31;6.00;99.90
36716;DHT22;22699;51.034;3.730;2022-12-08T10:58:42;5.60;99.90
36716;DHT22;22699;51.034;3.730;2022-12-08T11:01:27;5.80;99.90
36716;DHT22;22699;51.034;3.730;2022-12-08T11:04:03;5.90;99.90
36716;DHT22;22699;51.034;3.730;2022-12-08T11:06:37;5.90;99.90
36716;DHT22;22699;51.034;3.730;2022-12-08T11:09:35;6.00;99.90
36716;DHT22;22699;51.034;3.730;2022-12-08T11:12:19;6.00;99.90
36716;DHT22;22699;51.034;3.730;2022-12-08T11:14:59;6.20;99.90
36716;DHT22;22699;51.034;3.730;2022-12-08T11:17:38;6.10;99.90
36716;DHT22;22699;51.034;3.730;2022-12-08T11:22:41;6.10;99.90
36716;DHT22;22699;51.034;3.730;2022-12-08T11:25:19;6.10;99.90
36716;DHT22;22699;51.034;3.730;2022-12-08T11:27:49;6.00;99.90
36716;DHT22;22699;51.034;3.730;2022-12-08T11:35:43;6.40;99.90
36716;DHT22;22699;51.034;3.730;2022-12-08T11:38:24;6.70;99.90
36716;DHT22;22699;51.034;3.730;2022-12-08T11:40:59;6.90;99.90
36716;DHT22;22699;51.034;3.730;2022-12-08T11:46:16;6.60;99.90
36716;DHT22;22699;51.034;3.730;2022-12-08T11:57:01;6.30;99.90
36716;DHT22;22699;51.034;3.730;2022-12-08T11:59:48;6.50;99.90
36716;DHT22;22699;51.034;3.730;2022-12-08T12:02:27;6.90;99.90
36716;DHT22;22699;51.034;3.730;2022-12-08T12:10:54;7.20;99.90
36716;DHT22;22699;51.034;3.730;2022-12-08T12:19:23;8.50;99.90
36716;DHT22;22699;51.034;3.730;2022-12-08T12:21:54;8.50;99.90
36716;DHT22;22699;51.034;3.730;2022-12-08T12:24:25;8.10;99.90
36716;DHT22;22699;51.034;3.730;2022-12-08T12:27:20;8.20;99.90
36716;DHT22;22699;51.034;3.730;2022-12-08T12:29:55;8.40;99.90
36716;DHT22;22699;51.034;3.730;2022-12-08T12:32:44;8.40;99.90
36716;DHT22;22699;51.034;3.730;2022-12-08T12:35:32;8.60;99.90
36716;DHT22;22699;51.034;3.730;2022-12-08T12:41:21;8.40;99.90
36716;DHT22;22699;51.034;3.730;2022-12-08T12:47:03;8.00;99.90
36716;DHT22;22699;51.034;3.730;2022-12-08T12:55:17;7.60;99.90
36716;DHT22;22699;51.034;3.730;2022-12-08T12:57:37;7.50;99.90
36716;DHT22;22699;51.034;3.730;2022-12-08T13:02:48;6.80;99.90
36716;DHT22;22699;51.034;3.730;2022-12-08T13:05:29;6.70;99.90
36716;DHT22;22699;51.034;3.730;2022-12-08T13:08:34;6.50;99.90
36716;DHT22;22699;51.034;3.730;2022-12-08T13:11:16;6.30;99.90
36716;DHT22;22699;51.034;3.730;2022-12-08T13:14:02;6.20;99.90
36716;DHT22;22699;51.034;3.730;2022-12-08T13:16:42;6.00;99.90
36716;DHT22;22699;51.034;3.730;2022-12-08T13:19:16;5.90;99.90
36716;DHT22;22699;51.034;3.730;2022-12-08T13:21:44;6.00;99.90
36716;DHT22;22699;51.034;3.730;2022-12-08T13:26:44;6.00;99.90
36716;DHT22;22699;51.034;3.730;2022-12-08T13:29:23;6.00;99.90
36716;DHT22;22699;51.034;3.730;2022-12-08T13:34:45;6.10;99.90
36716;DHT22;22699;51.034;3.730;2022-12-08T13:37:28;6.00;99.90
36716;DHT22;22699;51.034;3.730;2022-12-08T13:40:15;6.00;99.90
36716;DHT22;22699;51.034;3.730;2022-12-08T13:45:30;5.90;99.90
36716;DHT22;22699;51.034;3.730;2022-12-08T13:50:40;5.70;99.90
36716;DHT22;22699;51.034;3.730;2022-12-08T13:55:49;5.70;99.90
36716;DHT22;22699;51.034;3.730;2022-12-08T14:00:59;5.40;99.90
36716;DHT22;22699;51.034;3.730;2022-12-08T14:03:27;5.30;99.90
36716;DHT22;22699;51.034;3.730;2022-12-08T14:05:54;5.40;99.90
36716;DHT22;22699;51.034;3.730;2022-12-08T14:08:32;5.60;99.90
36716;DHT22;22699;51.034;3.730;2022-12-08T14:11:03;5.70;99.90
36716;DHT22;22699;51.034;3.730;2022-12-08T14:13:33;5.60;99.90
36716;DHT22;22699;51.034;3.730;2022-12-08T14:16:00;5.50;99.90
36716;DHT22;22699;51.034;3.730;2022-12-08T14:18:29;5.40;99.90
36716;DHT22;22699;51.034;3.730;2022-12-08T14:21:09;5.60;99.90
36716;DHT22;22699;51.034;3.730;2022-12-08T14:23:36;5.60;99.90
36716;DHT22;22699;51.034;3.730;2022-12-08T14:26:05;5.70;99.90
36716;DHT22;22699;51.034;3.730;2022-12-08T14:28:33;5.80;99.90
36716;DHT22;22699;51.034;3.730;2022-12-08T14:30:59;5.90;99.90
36716;DHT22;22699;51.034;3.730;2022-12-08T14:33:26;5.80;99.90
36716;DHT22;22699;51.034;3.730;2022-12-08T14:35:55;5.80;99.90
36716;DHT22;22699;51.034;3.730;2022-12-08T14:38:22;5.70;99.90
36716;DHT22;22699;51.034;3.730;2022-12-08T14:41:00;5.40;99.90
36716;DHT22;22699;51.034;3.730;2022-12-08T14:43:28;5.20;99.90
36716;DHT22;22699;51.034;3.730;2022-12-08T14:46:01;5.10;99.90
36716;DHT22;22699;51.034;3.730;2022-12-08T14:54:09;5.00;99.90
36716;DHT22;22699;51.034;3.730;2022-12-08T14:56:52;5.20;99.90
36716;DHT22;22699;51.034;3.730;2022-12-08T14:59:30;5.20;99.90
36716;DHT22;22699;51.034;3.730;2022-12-08T15:04:52;5.30;99.90
36716;DHT22;22699;51.034;3.730;2022-12-08T15:07:36;5.30;99.90
36716;DHT22;22699;51.034;3.730;2022-12-08T15:10:25;5.10;99.90
36716;DHT22;22699;51.034;3.730;2022-12-08T15:15:54;5.20;99.90
36716;DHT22;22699;51.034;3.730;2022-12-08T15:18:38;5.10;99.90
36716;DHT22;22699;51.034;3.730;2022-12-08T15:21:07;4.90;99.90
36716;DHT22;22699;51.034;3.730;2022-12-08T15:23:43;4.90;99.90
36716;DHT22;22699;51.034;3.730;2022-12-08T15:26:25;4.80;99.90
36716;DHT22;22699;51.034;3.730;2022-12-08T15:29:27;4.80;99.90
36716;DHT22;22699;51.034;3.730;2022-12-08T15:32:04;4.70;99.90
36716;DHT22;22699;51.034;3.730;2022-12-08T15:34:34;4.50;99.90
36716;DHT22;22699;51.034;3.730;2022-12-08T15:37:02;4.50;99.90
36716;DHT22;22699;51.034;3.730;2022-12-08T15:39:36;4.50;99.90
36716;DHT22;22699;51.034;3.730;2022-12-08T15:42:12;4.90;99.90
36716;DHT22;22699;51.034;3.730;2022-12-08T15:44:41;4.50;99.90
36716;DHT22;22699;51.034;3.730;2022-12-08T15:47:35;4.40;99.90
36716;DHT22;22699;51.034;3.730;2022-12-08T15:50:05;4.50;99.90
36716;DHT22;22699;51.034;3.730;2022-12-08T15:52:31;4.50;99.90
36716;DHT22;22699;51.034;3.730;2022-12-08T15:54:57;4.60;99.90
36716;DHT22;22699;51.034;3.730;2022-12-08T15:57:26;4.50;99.90
36716;DHT22;22699;51.034;3.730;2022-12-08T15:59:56;4.40;99.90
36716;DHT22;22699;51.034;3.730;2022-12-08T16:02:27;4.40;99.90
36716;DHT22;22699;51.034;3.730;2022-12-08T16:05:26;4.30;99.90
36716;DHT22;22699;51.034;3.730;2022-12-08T16:08:19;4.20;99.90
36716;DHT22;22699;51.034;3.730;2022-12-08T16:11:00;4.20;99.90
36716;DHT22;22699;51.034;3.730;2022-12-08T16:13:47;4.20;99.90
36716;DHT22;22699;51.034;3.730;2022-12-08T16:16:19;4.20;99.90
36716;DHT22;22699;51.034;3.730;2022-12-08T16:19:12;4.20;99.90
36716;DHT22;22699;51.034;3.730;2022-12-08T16:21:37;4.20;99.90
36716;DHT22;22699;51.034;3.730;2022-12-08T16:24:18;4.20;99.90
36716;DHT22;22699;51.034;3.730;2022-12-08T16:26:50;4.20;99.90
36716;DHT22;22699;51.034;3.730;2022-12-08T16:29:31;4.10;99.90
36716;DHT22;22699;51.034;3.730;2022-12-08T16:32:04;4.00;99.90
36716;DHT22;22699;51.034;3.730;2022-12-08T16:34:34;4.10;99.90
36716;DHT22;22699;51.034;3.730;2022-12-08T16:37:00;4.10;99.90
36716;DHT22;22699;51.034;3.730;2022-12-08T16:39:36;4.10;99.90
36716;DHT22;22699;51.034;3.730;2022-12-08T16:45:21;4.20;99.90
36716;DHT22;22699;51.034;3.730;2022-12-08T16:47:59;4.30;99.90
36716;DHT22;22699;51.034;3.730;2022-12-08T16:50:54;4.30;99.90
36716;DHT22;22699;51.034;3.730;2022-12-08T16:53:34;4.10;99.90
36716;DHT22;22699;51.034;3.730;2022-12-08T16:56:03;4.00;99.90
36716;DHT22;22699;51.034;3.730;2022-12-08T16:58:47;4.00;99.90
36716;DHT22;22699;51.034;3.730;2022-12-08T17:01:17;3.90;99.90
36716;DHT22;22699;51.034;3.730;2022-12-08T17:03:49;3.90;99.90
36716;DHT22;22699;51.034;3.730;2022-12-08T17:09:49;3.90;99.90
36716;DHT22;22699;51.034;3.730;2022-12-08T17:12:19;4.00;99.90
36716;DHT22;22699;51.034;3.730;2022-12-08T17:14:51;4.00;99.90
36716;DHT22;22699;51.034;3.730;2022-12-08T17:20:39;3.90;99.90
36716;DHT22;22699;51.034;3.730;2022-12-08T17:23:08;4.00;99.90
36716;DHT22;22699;51.034;3.730;2022-12-08T17:25:35;4.00;99.90
36716;DHT22;22699;51.034;3.730;2022-12-08T17:28:01;4.00;99.90
36716;DHT22;22699;51.034;3.730;2022-12-08T17:30:33;4.00;99.90
36716;DHT22;22699;51.034;3.730;2022-12-08T17:32:59;3.90;99.90
36716;DHT22;22699;51.034;3.730;2022-12-08T17:35:25;3.80;99.90
36716;DHT22;22699;51.034;3.730;2022-12-08T17:37:53;3.80;99.90
36716;DHT22;22699;51.034;3.730;2022-12-08T17:40:19;3.80;99.90
36716;DHT22;22699;51.034;3.730;2022-12-08T17:42:44;3.90;99.90
36716;DHT22;22699;51.034;3.730;2022-12-08T17:45:14;3.90;99.90
36716;DHT22;22699;51.034;3.730;2022-12-08T17:47:40;3.80;99.90
36716;DHT22;22699;51.034;3.730;2022-12-08T17:50:12;3.80;99.90
36716;DHT22;22699;51.034;3.730;2022-12-08T17:52:40;3.80;99.90
36716;DHT22;22699;51.034;3.730;2022-12-08T17:55:06;3.80;99.90
36716;DHT22;22699;51.034;3.730;2022-12-08T17:57:33;3.80;99.90
36716;DHT22;22699;51.034;3.730;2022-12-08T18:00:03;3.70;99.90
36716;DHT22;22699;51.034;3.730;2022-12-08T18:02:29;3.80;99.90
36716;DHT22;22699;51.034;3.730;2022-12-08T18:04:57;3.80;99.90
36716;DHT22;22699;51.034;3.730;2022-12-08T18:07:27;3.80;99.90
36716;DHT22;22699;51.034;3.730;2022-12-08T18:09:53;3.90;99.90
36716;DHT22;22699;51.034;3.730;2022-12-08T18:12:18;3.80;99.90
36716;DHT22;22699;51.034;3.730;2022-12-08T18:14:44;3.90;99.90
36716;DHT22;22699;51.034;3.730;2022-12-08T18:17:10;4.00;99.90